PAL730 RPLL-VTBS
Flight info
| Callsign | PAL730 |
|---|---|
| Flight time | 2h 42m |
| Altitude | 32000 |
| Route | SIRCA2R SIRCA L628 ARESI/K0904F320 L628 PCA G474 ANINA/N0486F320 G474 VEMKO M633 DULEM TUMGA1C |
| Aircraft | B77W/H-SDE1E2E3FGHIJ2J3J4J5M1RWXY/LB1D1 |
Departure
| Time | 2026-05-07 04:47 |
|---|---|
| Airport | Ninoy Aquino International Airport (RPLL) |
Arrival
| Time | 2026-05-07 07:30 |
|---|---|
| Airport | Suvarnabhumi Airport (VTBS) |
| Time | Latitude | Longitude | Altitude | Speed | Heading |
|---|---|---|---|---|---|
| 2026-05-07 04:19 | 14.50371 | 121.00502 | 88 ft | 0 kts | 308° |
| 2026-05-07 04:36 | 14.50367 | 121.00507 | 87 ft | 2 kts | 308° |
| 2026-05-07 04:37 | 14.50358 | 121.00519 | 87 ft | 2 kts | 308° |
| 2026-05-07 04:37 | 14.50349 | 121.00531 | 87 ft | 2 kts | 308° |
| 2026-05-07 04:37 | 14.50341 | 121.00544 | 87 ft | 2 kts | 289° |
| 2026-05-07 04:37 | 14.50338 | 121.00558 | 87 ft | 2 kts | 270° |
| 2026-05-07 04:38 | 14.50339 | 121.00575 | 87 ft | 2 kts | 252° |
| 2026-05-07 04:38 | 14.50346 | 121.00588 | 87 ft | 2 kts | 237° |
| 2026-05-07 04:38 | 14.50354 | 121.00601 | 87 ft | 2 kts | 237° |
| 2026-05-07 04:38 | 14.50362 | 121.00614 | 87 ft | 2 kts | 239° |
| 2026-05-07 04:39 | 14.50369 | 121.00628 | 87 ft | 2 kts | 240° |
| 2026-05-07 04:39 | 14.50377 | 121.00641 | 87 ft | 1 kts | 239° |
| 2026-05-07 04:39 | 14.50378 | 121.00642 | 87 ft | 0 kts | 239° |
| 2026-05-07 04:41 | 14.50377 | 121.00641 | 87 ft | 0 kts | 239° |
| 2026-05-07 04:42 | 14.50370 | 121.00629 | 87 ft | 2 kts | 239° |
| 2026-05-07 04:42 | 14.50356 | 121.00604 | 87 ft | 5 kts | 239° |
| 2026-05-07 04:42 | 14.50334 | 121.00567 | 87 ft | 7 kts | 239° |
| 2026-05-07 04:42 | 14.50305 | 121.00517 | 87 ft | 8 kts | 239° |
| 2026-05-07 04:43 | 14.50272 | 121.00458 | 87 ft | 10 kts | 240° |
| 2026-05-07 04:43 | 14.50235 | 121.00390 | 87 ft | 11 kts | 240° |
| 2026-05-07 04:43 | 14.50201 | 121.00333 | 87 ft | 6 kts | 219° |
| 2026-05-07 04:43 | 14.50155 | 121.00338 | 87 ft | 7 kts | 162° |
| 2026-05-07 04:44 | 14.50111 | 121.00315 | 87 ft | 8 kts | 237° |
| 2026-05-07 04:44 | 14.50078 | 121.00255 | 87 ft | 10 kts | 240° |
| 2026-05-07 04:44 | 14.50040 | 121.00187 | 87 ft | 11 kts | 240° |
| 2026-05-07 04:44 | 14.49998 | 121.00111 | 87 ft | 12 kts | 240° |
| 2026-05-07 04:45 | 14.49953 | 121.00028 | 87 ft | 13 kts | 241° |
| 2026-05-07 04:45 | 14.49889 | 120.99963 | 88 ft | 13 kts | 173° |
| 2026-05-07 04:45 | 14.49811 | 121.00004 | 88 ft | 7 kts | 150° |
| 2026-05-07 04:45 | 14.49802 | 121.00043 | 88 ft | 7 kts | 66° |
| 2026-05-07 04:46 | 14.49821 | 121.00079 | 88 ft | 0 kts | 60° |
| 2026-05-07 04:46 | 14.49824 | 121.00084 | 88 ft | 4 kts | 60° |
| 2026-05-07 04:46 | 14.49886 | 121.00195 | 88 ft | 43 kts | 60° |
| 2026-05-07 04:47 | 14.50142 | 121.00657 | 88 ft | 104 kts | 60° |
| 2026-05-07 04:47 | 14.50595 | 121.01471 | 88 ft | 156 kts | 60° |
| 2026-05-07 04:47 | 14.51213 | 121.02586 | 197 ft | 191 kts | 62° |
| 2026-05-07 04:47 | 14.51878 | 121.03784 | 683 ft | 198 kts | 62° |
| 2026-05-07 04:48 | 14.52542 | 121.04974 | 1541 ft | 186 kts | 62° |
| 2026-05-07 04:48 | 14.53184 | 121.06138 | 1918 ft | 194 kts | 62° |
| 2026-05-07 04:48 | 14.53902 | 121.07434 | 2073 ft | 216 kts | 62° |
| 2026-05-07 04:48 | 14.54682 | 121.08839 | 2279 ft | 236 kts | 62° |
| 2026-05-07 04:49 | 14.55527 | 121.10362 | 2636 ft | 251 kts | 62° |
| 2026-05-07 04:49 | 14.56479 | 121.11918 | 3190 ft | 259 kts | 49° |
| 2026-05-07 04:49 | 14.57918 | 121.13013 | 3878 ft | 262 kts | 25° |
| 2026-05-07 04:49 | 14.59716 | 121.13413 | 4506 ft | 269 kts | 6° |
| 2026-05-07 04:50 | 14.61590 | 121.13463 | 5137 ft | 273 kts | 2° |
| 2026-05-07 04:50 | 14.63500 | 121.13466 | 5810 ft | 275 kts | 2° |
| 2026-05-07 04:50 | 14.65405 | 121.13472 | 6460 ft | 277 kts | 2° |
| 2026-05-07 04:50 | 14.67345 | 121.13129 | 7032 ft | 285 kts | 338° |
| 2026-05-07 04:51 | 14.68974 | 121.11953 | 7588 ft | 293 kts | 311° |
| 2026-05-07 04:51 | 14.69975 | 121.10110 | 8121 ft | 299 kts | 285° |
| 2026-05-07 04:51 | 14.70172 | 121.07970 | 8688 ft | 301 kts | 269° |
| 2026-05-07 04:51 | 14.70106 | 121.05804 | 9308 ft | 303 kts | 268° |
| 2026-05-07 04:52 | 14.70050 | 121.03620 | 9936 ft | 306 kts | 269° |
| 2026-05-07 04:52 | 14.70013 | 121.01389 | 10338 ft | 317 kts | 267° |
| 2026-05-07 04:52 | 14.69697 | 120.99088 | 10534 ft | 335 kts | 255° |
| 2026-05-07 04:52 | 14.68932 | 120.96716 | 10764 ft | 353 kts | 250° |
| 2026-05-07 04:53 | 14.68058 | 120.94292 | 10993 ft | 370 kts | 249° |
| 2026-05-07 04:53 | 14.67136 | 120.91739 | 11272 ft | 386 kts | 249° |
| 2026-05-07 04:53 | 14.66190 | 120.89111 | 11749 ft | 396 kts | 249° |
| 2026-05-07 04:53 | 14.65232 | 120.86448 | 12437 ft | 398 kts | 249° |
| 2026-05-07 04:54 | 14.64266 | 120.83765 | 13135 ft | 400 kts | 249° |
| 2026-05-07 04:54 | 14.63283 | 120.81033 | 13793 ft | 405 kts | 250° |
| 2026-05-07 04:54 | 14.62306 | 120.78323 | 14436 ft | 409 kts | 250° |
| 2026-05-07 04:54 | 14.61307 | 120.75552 | 15120 ft | 413 kts | 250° |
| 2026-05-07 04:55 | 14.60301 | 120.72763 | 15793 ft | 416 kts | 250° |
| 2026-05-07 04:55 | 14.59282 | 120.69938 | 16376 ft | 421 kts | 250° |
| 2026-05-07 04:55 | 14.58258 | 120.67102 | 17003 ft | 426 kts | 250° |
| 2026-05-07 04:55 | 14.57223 | 120.64233 | 17655 ft | 429 kts | 250° |
| 2026-05-07 04:56 | 14.56173 | 120.61327 | 18258 ft | 433 kts | 250° |
| 2026-05-07 04:56 | 14.55110 | 120.58382 | 18901 ft | 436 kts | 250° |
| 2026-05-07 04:56 | 14.54054 | 120.55463 | 19473 ft | 440 kts | 250° |
| 2026-05-07 04:56 | 14.52970 | 120.52463 | 20053 ft | 444 kts | 250° |
| 2026-05-07 04:57 | 14.51888 | 120.49474 | 20611 ft | 447 kts | 250° |
| 2026-05-07 04:57 | 14.50790 | 120.46439 | 21150 ft | 451 kts | 250° |
| 2026-05-07 04:57 | 14.49687 | 120.43394 | 21699 ft | 454 kts | 250° |
| 2026-05-07 04:57 | 14.48590 | 120.40365 | 22227 ft | 457 kts | 250° |
| 2026-05-07 04:58 | 14.47472 | 120.37281 | 22749 ft | 461 kts | 250° |
| 2026-05-07 04:58 | 14.46445 | 120.34124 | 23261 ft | 464 kts | 256° |
| 2026-05-07 04:58 | 14.45890 | 120.30783 | 23760 ft | 466 kts | 265° |
| 2026-05-07 04:58 | 14.45627 | 120.27409 | 24322 ft | 468 kts | 266° |
| 2026-05-07 04:59 | 14.45395 | 120.24078 | 24872 ft | 470 kts | 266° |
| 2026-05-07 04:59 | 14.45157 | 120.20667 | 25402 ft | 472 kts | 266° |
| 2026-05-07 04:59 | 14.44920 | 120.17292 | 25894 ft | 475 kts | 267° |
| 2026-05-07 04:59 | 14.44679 | 120.13872 | 26389 ft | 478 kts | 267° |
| 2026-05-07 05:00 | 14.44436 | 120.10436 | 26899 ft | 481 kts | 267° |
| 2026-05-07 05:00 | 14.44192 | 120.06990 | 27415 ft | 483 kts | 267° |
| 2026-05-07 05:00 | 14.43946 | 120.03542 | 27907 ft | 485 kts | 267° |
| 2026-05-07 05:00 | 14.43696 | 120.00048 | 28368 ft | 488 kts | 267° |
| 2026-05-07 05:01 | 14.43446 | 119.96558 | 28825 ft | 491 kts | 267° |
| 2026-05-07 05:01 | 14.43191 | 119.93003 | 29303 ft | 493 kts | 267° |
| 2026-05-07 05:01 | 14.42937 | 119.89470 | 29932 ft | 491 kts | 267° |
| 2026-05-07 05:01 | 14.42685 | 119.85986 | 30627 ft | 487 kts | 267° |
| 2026-05-07 05:02 | 14.42434 | 119.82520 | 31281 ft | 484 kts | 266° |
| 2026-05-07 05:02 | 14.42182 | 119.79034 | 31840 ft | 483 kts | 266° |
| 2026-05-07 05:02 | 14.41931 | 119.75584 | 32335 ft | 482 kts | 266° |
| 2026-05-07 05:02 | 14.41678 | 119.72113 | 32841 ft | 481 kts | 266° |
| 2026-05-07 05:03 | 14.41425 | 119.68646 | 33407 ft | 479 kts | 266° |
| 2026-05-07 05:03 | 14.41170 | 119.65160 | 33846 ft | 480 kts | 266° |
| 2026-05-07 05:03 | 14.40662 | 119.58240 | 33858 ft | 476 kts | 266° |
| 2026-05-07 05:04 | 14.40160 | 119.51418 | 33862 ft | 478 kts | 266° |
| 2026-05-07 05:04 | 14.39647 | 119.44474 | 33860 ft | 492 kts | 266° |
| 2026-05-07 05:05 | 14.39117 | 119.37342 | 33861 ft | 506 kts | 266° |
| 2026-05-07 05:05 | 14.38575 | 119.30074 | 33856 ft | 513 kts | 266° |
| 2026-05-07 05:06 | 14.38026 | 119.22741 | 33854 ft | 513 kts | 266° |
| 2026-05-07 05:06 | 14.37471 | 119.15357 | 33854 ft | 513 kts | 266° |
| 2026-05-07 05:07 | 14.36921 | 119.08079 | 33855 ft | 513 kts | 266° |
| 2026-05-07 05:07 | 14.36361 | 119.00695 | 33859 ft | 514 kts | 266° |
| 2026-05-07 05:08 | 14.35803 | 118.93362 | 33859 ft | 513 kts | 266° |
| 2026-05-07 05:08 | 14.35243 | 118.86043 | 33862 ft | 513 kts | 266° |
| 2026-05-07 05:09 | 14.34679 | 118.78685 | 33859 ft | 513 kts | 266° |
| 2026-05-07 05:09 | 14.34116 | 118.71389 | 33859 ft | 512 kts | 266° |
| 2026-05-07 05:10 | 14.33548 | 118.64047 | 33856 ft | 512 kts | 266° |
| 2026-05-07 05:10 | 14.32977 | 118.56699 | 33856 ft | 512 kts | 266° |
| 2026-05-07 05:11 | 14.32407 | 118.49384 | 33852 ft | 512 kts | 266° |
| 2026-05-07 05:11 | 14.31828 | 118.41997 | 33854 ft | 512 kts | 266° |
| 2026-05-07 05:12 | 14.31250 | 118.34641 | 33855 ft | 512 kts | 266° |
| 2026-05-07 05:12 | 14.30668 | 118.27267 | 33855 ft | 513 kts | 266° |
| 2026-05-07 05:13 | 14.30078 | 118.19831 | 33853 ft | 513 kts | 266° |
| 2026-05-07 05:13 | 14.29499 | 118.12546 | 33851 ft | 512 kts | 267° |
| 2026-05-07 05:14 | 14.28909 | 118.05167 | 33855 ft | 512 kts | 267° |
| 2026-05-07 05:14 | 14.28319 | 117.97809 | 33858 ft | 513 kts | 267° |
| 2026-05-07 05:15 | 14.27726 | 117.90446 | 33857 ft | 513 kts | 267° |
| 2026-05-07 05:15 | 14.27135 | 117.83129 | 33867 ft | 513 kts | 267° |
| 2026-05-07 05:16 | 14.26541 | 117.75815 | 33869 ft | 513 kts | 267° |
| 2026-05-07 05:16 | 14.25945 | 117.68496 | 33869 ft | 513 kts | 267° |
| 2026-05-07 05:17 | 14.25343 | 117.61132 | 33869 ft | 512 kts | 267° |
| 2026-05-07 05:17 | 14.24739 | 117.53770 | 33862 ft | 511 kts | 267° |
| 2026-05-07 05:18 | 14.24135 | 117.46439 | 33867 ft | 512 kts | 267° |
| 2026-05-07 05:18 | 14.23527 | 117.39088 | 33864 ft | 512 kts | 267° |
| 2026-05-07 05:19 | 14.22919 | 117.31758 | 33874 ft | 513 kts | 267° |
| 2026-05-07 05:19 | 14.22303 | 117.24371 | 33869 ft | 512 kts | 267° |
| 2026-05-07 05:20 | 14.21690 | 117.17036 | 33869 ft | 512 kts | 267° |
| 2026-05-07 05:20 | 14.21071 | 117.09661 | 33867 ft | 512 kts | 267° |
| 2026-05-07 05:21 | 14.20140 | 116.98624 | 33870 ft | 512 kts | 267° |
| 2026-05-07 05:22 | 14.19510 | 116.91184 | 33869 ft | 512 kts | 267° |
| 2026-05-07 05:22 | 14.18888 | 116.83868 | 33871 ft | 512 kts | 267° |
| 2026-05-07 05:23 | 14.18262 | 116.76543 | 33870 ft | 512 kts | 267° |
| 2026-05-07 05:23 | 14.17632 | 116.69183 | 33869 ft | 512 kts | 267° |
| 2026-05-07 05:24 | 14.17000 | 116.61835 | 33870 ft | 513 kts | 267° |
| 2026-05-07 05:24 | 14.16365 | 116.54485 | 33870 ft | 512 kts | 267° |
| 2026-05-07 05:25 | 14.15722 | 116.47054 | 33869 ft | 513 kts | 267° |
| 2026-05-07 05:25 | 14.15082 | 116.39695 | 33866 ft | 512 kts | 266° |
| 2026-05-07 05:26 | 14.14445 | 116.32397 | 33863 ft | 511 kts | 266° |
| 2026-05-07 05:26 | 14.13800 | 116.25022 | 33865 ft | 512 kts | 266° |
| 2026-05-07 05:27 | 14.13150 | 116.17629 | 33869 ft | 513 kts | 266° |
| 2026-05-07 05:27 | 14.12505 | 116.10315 | 33860 ft | 512 kts | 266° |
| 2026-05-07 05:28 | 14.11857 | 116.02985 | 33855 ft | 513 kts | 266° |
| 2026-05-07 05:28 | 14.11203 | 115.95617 | 33852 ft | 512 kts | 266° |
| 2026-05-07 05:29 | 14.10547 | 115.88250 | 33854 ft | 512 kts | 266° |
| 2026-05-07 05:29 | 14.09896 | 115.80968 | 33858 ft | 512 kts | 266° |
| 2026-05-07 05:30 | 14.09235 | 115.73601 | 33858 ft | 512 kts | 266° |
| 2026-05-07 05:30 | 14.08571 | 115.66229 | 33854 ft | 512 kts | 266° |
| 2026-05-07 05:31 | 14.07906 | 115.58865 | 33854 ft | 512 kts | 266° |
| 2026-05-07 05:31 | 14.07242 | 115.51541 | 33863 ft | 513 kts | 266° |
| 2026-05-07 05:32 | 14.06576 | 115.44209 | 33868 ft | 512 kts | 266° |
| 2026-05-07 05:32 | 14.05906 | 115.36874 | 33872 ft | 512 kts | 266° |
| 2026-05-07 05:33 | 14.05239 | 115.29588 | 33873 ft | 512 kts | 266° |
| 2026-05-07 05:33 | 14.04563 | 115.22229 | 33872 ft | 512 kts | 266° |
| 2026-05-07 05:34 | 14.03886 | 115.14874 | 33871 ft | 512 kts | 266° |
| 2026-05-07 05:34 | 14.03206 | 115.07526 | 33871 ft | 513 kts | 266° |
| 2026-05-07 05:35 | 14.02527 | 115.00205 | 33872 ft | 513 kts | 266° |
| 2026-05-07 05:35 | 14.01834 | 114.92757 | 33872 ft | 513 kts | 266° |
| 2026-05-07 05:36 | 14.01155 | 114.85490 | 33873 ft | 513 kts | 266° |
| 2026-05-07 05:36 | 14.00470 | 114.78178 | 33870 ft | 512 kts | 266° |
| 2026-05-07 05:37 | 13.99770 | 114.70733 | 33869 ft | 511 kts | 266° |
| 2026-05-07 05:37 | 13.99083 | 114.63448 | 33869 ft | 511 kts | 266° |
| 2026-05-07 05:38 | 13.98395 | 114.56178 | 33870 ft | 510 kts | 266° |
| 2026-05-07 05:38 | 13.97696 | 114.48813 | 33868 ft | 511 kts | 266° |
| 2026-05-07 05:39 | 13.97333 | 114.41448 | 33871 ft | 510 kts | 272° |
| 2026-05-07 05:39 | 13.97395 | 114.34161 | 33871 ft | 509 kts | 272° |
| 2026-05-07 05:40 | 13.97455 | 114.26823 | 33873 ft | 510 kts | 272° |
| 2026-05-07 05:40 | 13.97508 | 114.19472 | 33872 ft | 507 kts | 272° |
| 2026-05-07 05:41 | 13.97558 | 114.12209 | 33870 ft | 507 kts | 272° |
| 2026-05-07 05:41 | 13.97604 | 114.04905 | 33870 ft | 507 kts | 272° |
| 2026-05-07 05:42 | 13.97647 | 113.97656 | 33871 ft | 506 kts | 272° |
| 2026-05-07 05:42 | 13.97688 | 113.90373 | 33871 ft | 508 kts | 272° |
| 2026-05-07 05:43 | 13.97726 | 113.83100 | 33871 ft | 508 kts | 272° |
| 2026-05-07 05:43 | 13.97762 | 113.75784 | 33871 ft | 508 kts | 272° |
| 2026-05-07 05:44 | 13.97796 | 113.68477 | 33870 ft | 508 kts | 272° |
| 2026-05-07 05:44 | 13.97828 | 113.61213 | 33870 ft | 506 kts | 272° |
| 2026-05-07 05:45 | 13.97857 | 113.53954 | 33869 ft | 505 kts | 272° |
| 2026-05-07 05:45 | 13.97884 | 113.46711 | 33871 ft | 506 kts | 272° |
| 2026-05-07 05:46 | 13.97909 | 113.39477 | 33868 ft | 506 kts | 272° |
| 2026-05-07 05:46 | 13.97932 | 113.32184 | 33869 ft | 506 kts | 272° |
| 2026-05-07 05:47 | 13.97953 | 113.24853 | 33863 ft | 507 kts | 272° |
| 2026-05-07 05:47 | 13.97972 | 113.17625 | 33857 ft | 506 kts | 272° |
| 2026-05-07 05:48 | 13.97988 | 113.10327 | 33855 ft | 505 kts | 272° |
| 2026-05-07 05:48 | 13.98002 | 113.03030 | 33864 ft | 505 kts | 272° |
| 2026-05-07 05:49 | 13.98016 | 112.95710 | 33871 ft | 505 kts | 272° |
| 2026-05-07 05:49 | 13.98027 | 112.88477 | 33871 ft | 506 kts | 272° |
| 2026-05-07 05:50 | 13.98036 | 112.81263 | 33870 ft | 505 kts | 272° |
| 2026-05-07 05:50 | 13.98043 | 112.73919 | 33871 ft | 507 kts | 272° |
| 2026-05-07 05:51 | 13.98048 | 112.66616 | 33871 ft | 507 kts | 272° |
| 2026-05-07 05:51 | 13.98051 | 112.59354 | 33869 ft | 507 kts | 272° |
| 2026-05-07 05:52 | 13.98051 | 112.52050 | 33870 ft | 507 kts | 272° |
| 2026-05-07 05:52 | 13.98049 | 112.44721 | 33870 ft | 507 kts | 272° |
| 2026-05-07 05:53 | 13.98045 | 112.37450 | 33869 ft | 506 kts | 272° |
| 2026-05-07 05:53 | 13.98039 | 112.30145 | 33873 ft | 507 kts | 272° |
| 2026-05-07 05:54 | 13.98031 | 112.22786 | 33873 ft | 508 kts | 272° |
| 2026-05-07 05:54 | 13.98021 | 112.15480 | 33871 ft | 509 kts | 271° |
| 2026-05-07 05:55 | 13.98008 | 112.08176 | 33871 ft | 509 kts | 271° |
| 2026-05-07 05:55 | 13.97993 | 112.00867 | 33872 ft | 508 kts | 271° |
| 2026-05-07 05:56 | 13.97976 | 111.93539 | 33871 ft | 508 kts | 271° |
| 2026-05-07 05:56 | 13.97957 | 111.86293 | 33870 ft | 508 kts | 271° |
| 2026-05-07 05:57 | 13.97935 | 111.78989 | 33870 ft | 508 kts | 271° |
| 2026-05-07 05:57 | 13.97912 | 111.71633 | 33871 ft | 509 kts | 271° |
| 2026-05-07 05:58 | 13.97886 | 111.64368 | 33868 ft | 509 kts | 271° |
| 2026-05-07 05:58 | 13.97858 | 111.57091 | 33870 ft | 510 kts | 271° |
| 2026-05-07 05:59 | 13.97827 | 111.49696 | 33870 ft | 510 kts | 271° |
| 2026-05-07 05:59 | 13.97792 | 111.42381 | 33868 ft | 509 kts | 271° |
| 2026-05-07 06:00 | 13.97754 | 111.35015 | 33866 ft | 509 kts | 271° |
| 2026-05-07 06:00 | 13.97714 | 111.27721 | 33870 ft | 509 kts | 271° |
| 2026-05-07 06:01 | 13.97672 | 111.20440 | 33864 ft | 510 kts | 271° |
| 2026-05-07 06:01 | 13.97628 | 111.13134 | 33855 ft | 509 kts | 271° |
| 2026-05-07 06:02 | 13.97582 | 111.05801 | 33857 ft | 509 kts | 271° |
| 2026-05-07 06:02 | 13.97533 | 110.98469 | 33865 ft | 510 kts | 270° |
| 2026-05-07 06:03 | 13.97483 | 110.91187 | 33867 ft | 509 kts | 270° |
| 2026-05-07 06:03 | 13.97430 | 110.83884 | 33869 ft | 509 kts | 270° |
| 2026-05-07 06:04 | 13.97374 | 110.76533 | 33868 ft | 509 kts | 270° |
| 2026-05-07 06:04 | 13.97317 | 110.69268 | 33866 ft | 509 kts | 270° |
| 2026-05-07 06:05 | 13.97258 | 110.61984 | 33866 ft | 509 kts | 270° |
| 2026-05-07 06:05 | 13.97197 | 110.54677 | 33867 ft | 509 kts | 270° |
| 2026-05-07 06:06 | 13.97133 | 110.47394 | 33868 ft | 508 kts | 270° |
| 2026-05-07 06:06 | 13.97067 | 110.40057 | 33865 ft | 508 kts | 270° |
| 2026-05-07 06:07 | 13.96999 | 110.32826 | 33863 ft | 509 kts | 270° |
| 2026-05-07 06:07 | 13.96929 | 110.25505 | 33854 ft | 510 kts | 270° |
| 2026-05-07 06:08 | 13.96857 | 110.18225 | 33849 ft | 510 kts | 270° |
| 2026-05-07 06:08 | 13.96782 | 110.10918 | 33851 ft | 509 kts | 270° |
| 2026-05-07 06:09 | 13.96706 | 110.03650 | 33848 ft | 508 kts | 270° |
| 2026-05-07 06:09 | 13.96634 | 109.96377 | 33849 ft | 507 kts | 270° |
| 2026-05-07 06:10 | 13.96577 | 109.89100 | 33851 ft | 507 kts | 271° |
| 2026-05-07 06:10 | 13.96518 | 109.81794 | 33843 ft | 508 kts | 270° |
| 2026-05-07 06:11 | 13.96456 | 109.74529 | 33843 ft | 507 kts | 270° |
| 2026-05-07 06:11 | 13.96391 | 109.67255 | 33843 ft | 508 kts | 270° |
| 2026-05-07 06:12 | 13.96324 | 109.59972 | 33842 ft | 508 kts | 270° |
| 2026-05-07 06:12 | 13.96255 | 109.52647 | 33835 ft | 508 kts | 270° |
| 2026-05-07 06:13 | 13.96181 | 109.45279 | 33835 ft | 507 kts | 270° |
| 2026-05-07 06:13 | 13.96105 | 109.38021 | 33835 ft | 508 kts | 270° |
| 2026-05-07 06:14 | 13.96027 | 109.30727 | 33840 ft | 507 kts | 269° |
| 2026-05-07 06:14 | 13.95946 | 109.23451 | 33841 ft | 508 kts | 270° |
| 2026-05-07 06:15 | 13.95865 | 109.16206 | 33840 ft | 509 kts | 269° |
| 2026-05-07 06:15 | 13.95780 | 109.08913 | 33841 ft | 508 kts | 269° |
| 2026-05-07 06:16 | 13.95749 | 109.01637 | 33832 ft | 509 kts | 272° |
| 2026-05-07 06:16 | 13.96143 | 108.94340 | 33841 ft | 508 kts | 274° |
| 2026-05-07 06:17 | 13.96534 | 108.87096 | 33861 ft | 509 kts | 273° |
| 2026-05-07 06:17 | 13.96912 | 108.79784 | 33887 ft | 509 kts | 273° |
| 2026-05-07 06:18 | 13.97276 | 108.72516 | 33910 ft | 509 kts | 273° |
| 2026-05-07 06:18 | 13.97636 | 108.65217 | 33911 ft | 509 kts | 273° |
| 2026-05-07 06:19 | 13.97992 | 108.57870 | 33918 ft | 509 kts | 273° |
| 2026-05-07 06:19 | 13.98348 | 108.50481 | 33929 ft | 510 kts | 273° |
| 2026-05-07 06:20 | 13.98696 | 108.43182 | 33929 ft | 509 kts | 273° |
| 2026-05-07 06:20 | 13.99041 | 108.35892 | 33945 ft | 509 kts | 273° |
| 2026-05-07 06:21 | 13.99386 | 108.28538 | 33954 ft | 510 kts | 272° |
| 2026-05-07 06:21 | 13.99728 | 108.21217 | 33973 ft | 509 kts | 272° |
| 2026-05-07 06:22 | 14.00069 | 108.13879 | 33977 ft | 511 kts | 273° |
| 2026-05-07 06:22 | 14.00579 | 108.02982 | 33990 ft | 510 kts | 273° |
| 2026-05-07 06:23 | 14.00497 | 107.95606 | 33987 ft | 510 kts | 268° |
| 2026-05-07 06:23 | 14.00166 | 107.88271 | 33960 ft | 510 kts | 268° |
| 2026-05-07 06:24 | 13.99860 | 107.80936 | 33917 ft | 510 kts | 268° |
| 2026-05-07 06:24 | 13.99569 | 107.73633 | 33892 ft | 512 kts | 268° |
| 2026-05-07 06:25 | 13.99283 | 107.66270 | 33878 ft | 512 kts | 268° |
| 2026-05-07 06:25 | 13.99001 | 107.58948 | 33875 ft | 512 kts | 268° |
| 2026-05-07 06:26 | 13.98715 | 107.51510 | 33861 ft | 512 kts | 268° |
| 2026-05-07 06:26 | 13.98430 | 107.44128 | 33848 ft | 512 kts | 268° |
| 2026-05-07 06:27 | 13.97589 | 107.36783 | 33830 ft | 513 kts | 262° |
| 2026-05-07 06:27 | 13.96449 | 107.29517 | 33820 ft | 514 kts | 261° |
| 2026-05-07 06:28 | 13.95293 | 107.22231 | 33809 ft | 514 kts | 259° |
| 2026-05-07 06:28 | 13.92902 | 107.15233 | 33818 ft | 517 kts | 242° |
| 2026-05-07 06:29 | 13.88731 | 107.09145 | 33826 ft | 518 kts | 232° |
| 2026-05-07 06:29 | 13.84137 | 107.03386 | 33837 ft | 517 kts | 231° |
| 2026-05-07 06:30 | 13.79777 | 106.97551 | 33850 ft | 515 kts | 239° |
| 2026-05-07 06:30 | 13.76959 | 106.90789 | 33845 ft | 513 kts | 256° |
| 2026-05-07 06:31 | 13.75663 | 106.83589 | 33831 ft | 514 kts | 261° |
| 2026-05-07 06:31 | 13.74507 | 106.76349 | 33816 ft | 514 kts | 261° |
| 2026-05-07 06:32 | 13.73346 | 106.69066 | 33803 ft | 514 kts | 261° |
| 2026-05-07 06:32 | 13.72188 | 106.61803 | 33800 ft | 514 kts | 261° |
| 2026-05-07 06:33 | 13.71029 | 106.54539 | 33792 ft | 514 kts | 261° |
| 2026-05-07 06:33 | 13.69871 | 106.47300 | 33792 ft | 514 kts | 261° |
| 2026-05-07 06:34 | 13.68708 | 106.40037 | 33793 ft | 513 kts | 261° |
| 2026-05-07 06:34 | 13.67543 | 106.32770 | 33799 ft | 514 kts | 261° |
| 2026-05-07 06:35 | 13.66383 | 106.25556 | 33800 ft | 515 kts | 261° |
| 2026-05-07 06:35 | 13.65202 | 106.18220 | 33795 ft | 515 kts | 261° |
| 2026-05-07 06:36 | 13.64220 | 106.10921 | 33796 ft | 514 kts | 269° |
| 2026-05-07 06:36 | 13.64366 | 106.03580 | 33795 ft | 513 kts | 272° |
| 2026-05-07 06:37 | 13.64608 | 105.96278 | 33797 ft | 514 kts | 272° |
| 2026-05-07 06:37 | 13.64848 | 105.88903 | 33798 ft | 514 kts | 272° |
| 2026-05-07 06:38 | 13.65082 | 105.81576 | 33807 ft | 513 kts | 272° |
| 2026-05-07 06:38 | 13.65312 | 105.74271 | 33809 ft | 514 kts | 272° |
| 2026-05-07 06:39 | 13.65541 | 105.66934 | 33813 ft | 513 kts | 272° |
| 2026-05-07 06:39 | 13.65767 | 105.59583 | 33813 ft | 514 kts | 272° |
| 2026-05-07 06:40 | 13.65992 | 105.52213 | 33816 ft | 514 kts | 272° |
| 2026-05-07 06:40 | 13.66215 | 105.44838 | 33809 ft | 514 kts | 272° |
| 2026-05-07 06:41 | 13.66434 | 105.37506 | 33798 ft | 513 kts | 272° |
| 2026-05-07 06:41 | 13.66651 | 105.30153 | 33788 ft | 513 kts | 272° |
| 2026-05-07 06:42 | 13.66867 | 105.22808 | 33777 ft | 514 kts | 272° |
| 2026-05-07 06:42 | 13.67081 | 105.15406 | 33775 ft | 514 kts | 272° |
| 2026-05-07 06:43 | 13.67293 | 105.08019 | 33775 ft | 515 kts | 272° |
| 2026-05-07 06:43 | 13.67503 | 105.00623 | 33777 ft | 515 kts | 272° |
| 2026-05-07 06:44 | 13.67710 | 104.93244 | 33784 ft | 516 kts | 272° |
| 2026-05-07 06:44 | 13.67916 | 104.85841 | 33784 ft | 515 kts | 272° |
| 2026-05-07 06:45 | 13.68120 | 104.78403 | 33781 ft | 513 kts | 272° |
| 2026-05-07 06:45 | 13.68321 | 104.71019 | 33781 ft | 514 kts | 272° |
| 2026-05-07 06:46 | 13.68519 | 104.63650 | 33784 ft | 514 kts | 272° |
| 2026-05-07 06:46 | 13.68714 | 104.56332 | 33788 ft | 514 kts | 272° |
| 2026-05-07 06:47 | 13.68908 | 104.48959 | 33790 ft | 514 kts | 272° |
| 2026-05-07 06:47 | 13.69099 | 104.41585 | 33792 ft | 514 kts | 272° |
| 2026-05-07 06:48 | 13.69289 | 104.34222 | 33795 ft | 514 kts | 271° |
| 2026-05-07 06:48 | 13.69477 | 104.26831 | 33797 ft | 514 kts | 271° |
| 2026-05-07 06:49 | 13.69663 | 104.19398 | 33796 ft | 514 kts | 271° |
| 2026-05-07 06:49 | 13.69845 | 104.12049 | 33791 ft | 514 kts | 271° |
| 2026-05-07 06:50 | 13.70027 | 104.04667 | 33776 ft | 514 kts | 271° |
| 2026-05-07 06:50 | 13.70205 | 103.97298 | 33767 ft | 514 kts | 271° |
| 2026-05-07 06:51 | 13.70381 | 103.89943 | 33767 ft | 514 kts | 271° |
| 2026-05-07 06:51 | 13.70555 | 103.82572 | 33768 ft | 513 kts | 272° |
| 2026-05-07 06:52 | 13.70727 | 103.75205 | 33767 ft | 515 kts | 271° |
| 2026-05-07 06:52 | 13.70896 | 103.67851 | 33768 ft | 514 kts | 272° |
| 2026-05-07 06:53 | 13.71064 | 103.60438 | 33765 ft | 514 kts | 272° |
| 2026-05-07 06:53 | 13.71230 | 103.53048 | 33760 ft | 515 kts | 272° |
| 2026-05-07 06:54 | 13.71393 | 103.45683 | 33765 ft | 515 kts | 271° |
| 2026-05-07 06:54 | 13.71555 | 103.38261 | 33759 ft | 516 kts | 272° |
| 2026-05-07 06:55 | 13.71715 | 103.30822 | 33762 ft | 516 kts | 271° |
| 2026-05-07 06:55 | 13.71870 | 103.23489 | 33771 ft | 516 kts | 271° |
| 2026-05-07 06:56 | 13.72026 | 103.16046 | 33781 ft | 517 kts | 271° |
| 2026-05-07 06:56 | 13.72180 | 103.08598 | 33782 ft | 516 kts | 271° |
| 2026-05-07 06:57 | 13.72330 | 103.01199 | 33786 ft | 515 kts | 271° |
| 2026-05-07 06:57 | 13.72477 | 102.93838 | 33788 ft | 516 kts | 271° |
| 2026-05-07 06:58 | 13.72623 | 102.86436 | 33791 ft | 516 kts | 271° |
| 2026-05-07 06:58 | 13.72766 | 102.79064 | 33786 ft | 516 kts | 271° |
| 2026-05-07 06:59 | 13.72908 | 102.71667 | 33786 ft | 517 kts | 271° |
| 2026-05-07 06:59 | 13.73047 | 102.64308 | 33788 ft | 517 kts | 271° |
| 2026-05-07 07:00 | 13.73181 | 102.56921 | 33791 ft | 516 kts | 271° |
| 2026-05-07 07:00 | 13.73313 | 102.49556 | 33794 ft | 516 kts | 271° |
| 2026-05-07 07:01 | 13.73445 | 102.42110 | 33790 ft | 516 kts | 271° |
| 2026-05-07 07:01 | 13.73573 | 102.34731 | 33791 ft | 515 kts | 271° |
| 2026-05-07 07:02 | 13.73557 | 102.27296 | 33786 ft | 515 kts | 264° |
| 2026-05-07 07:02 | 13.71854 | 102.20139 | 33787 ft | 516 kts | 247° |
| 2026-05-07 07:03 | 13.68643 | 102.13514 | 33789 ft | 515 kts | 242° |
| 2026-05-07 07:03 | 13.65308 | 102.07015 | 33452 ft | 503 kts | 242° |
| 2026-05-07 07:04 | 13.63672 | 102.03836 | 32363 ft | 509 kts | 242° |
| 2026-05-07 07:04 | 13.62021 | 102.00634 | 31119 ft | 517 kts | 242° |
| 2026-05-07 07:04 | 13.60331 | 101.97362 | 30229 ft | 518 kts | 242° |
| 2026-05-07 07:04 | 13.58625 | 101.94063 | 29719 ft | 511 kts | 242° |
| 2026-05-07 07:05 | 13.56949 | 101.90823 | 29303 ft | 503 kts | 243° |
| 2026-05-07 07:05 | 13.55313 | 101.87664 | 28743 ft | 499 kts | 243° |
| 2026-05-07 07:05 | 13.53676 | 101.84504 | 28061 ft | 497 kts | 243° |
| 2026-05-07 07:05 | 13.52057 | 101.81380 | 27402 ft | 495 kts | 243° |
| 2026-05-07 07:06 | 13.50432 | 101.78248 | 26802 ft | 492 kts | 242° |
| 2026-05-07 07:06 | 13.48841 | 101.75182 | 26277 ft | 487 kts | 242° |
| 2026-05-07 07:06 | 13.47253 | 101.72122 | 26070 ft | 475 kts | 242° |
| 2026-05-07 07:06 | 13.45721 | 101.69173 | 25657 ft | 469 kts | 242° |
| 2026-05-07 07:07 | 13.44179 | 101.66204 | 25114 ft | 466 kts | 242° |
| 2026-05-07 07:07 | 13.42663 | 101.63287 | 24564 ft | 463 kts | 242° |
| 2026-05-07 07:07 | 13.41213 | 101.60359 | 24016 ft | 460 kts | 247° |
| 2026-05-07 07:07 | 13.40187 | 101.57256 | 23471 ft | 457 kts | 257° |
| 2026-05-07 07:08 | 13.39635 | 101.54063 | 22926 ft | 454 kts | 263° |
| 2026-05-07 07:08 | 13.39235 | 101.50897 | 22390 ft | 451 kts | 263° |
| 2026-05-07 07:08 | 13.38838 | 101.47686 | 21857 ft | 448 kts | 263° |
| 2026-05-07 07:08 | 13.38443 | 101.44494 | 21326 ft | 446 kts | 263° |
| 2026-05-07 07:09 | 13.38058 | 101.41376 | 20791 ft | 445 kts | 263° |
| 2026-05-07 07:09 | 13.37665 | 101.38200 | 20238 ft | 443 kts | 263° |
| 2026-05-07 07:09 | 13.37281 | 101.35107 | 19697 ft | 442 kts | 263° |
| 2026-05-07 07:09 | 13.36889 | 101.31945 | 19138 ft | 440 kts | 262° |
| 2026-05-07 07:10 | 13.36504 | 101.28839 | 18582 ft | 438 kts | 262° |
| 2026-05-07 07:10 | 13.36119 | 101.25742 | 18053 ft | 436 kts | 262° |
| 2026-05-07 07:10 | 13.35748 | 101.22701 | 17866 ft | 423 kts | 264° |
| 2026-05-07 07:10 | 13.35716 | 101.19697 | 17742 ft | 410 kts | 275° |
| 2026-05-07 07:11 | 13.36139 | 101.16878 | 17448 ft | 402 kts | 282° |
| 2026-05-07 07:11 | 13.36715 | 101.14047 | 17056 ft | 398 kts | 282° |
| 2026-05-07 07:11 | 13.37286 | 101.11295 | 16673 ft | 394 kts | 282° |
| 2026-05-07 07:11 | 13.37859 | 101.08540 | 16302 ft | 389 kts | 282° |
| 2026-05-07 07:12 | 13.38421 | 101.05849 | 15945 ft | 385 kts | 282° |
| 2026-05-07 07:12 | 13.38977 | 101.03186 | 15593 ft | 380 kts | 282° |
| 2026-05-07 07:12 | 13.39534 | 101.00521 | 15232 ft | 375 kts | 282° |
| 2026-05-07 07:12 | 13.40081 | 100.97909 | 14891 ft | 371 kts | 282° |
| 2026-05-07 07:13 | 13.40619 | 100.95336 | 14555 ft | 367 kts | 282° |
| 2026-05-07 07:13 | 13.41256 | 100.92812 | 14215 ft | 363 kts | 292° |
| 2026-05-07 07:13 | 13.42444 | 100.90533 | 13873 ft | 360 kts | 308° |
| 2026-05-07 07:13 | 13.44162 | 100.88689 | 13538 ft | 356 kts | 322° |
| 2026-05-07 07:14 | 13.46129 | 100.87131 | 13209 ft | 353 kts | 326° |
| 2026-05-07 07:14 | 13.48122 | 100.85685 | 12884 ft | 351 kts | 327° |
| 2026-05-07 07:14 | 13.50148 | 100.84275 | 12559 ft | 349 kts | 328° |
| 2026-05-07 07:14 | 13.52178 | 100.82906 | 12250 ft | 347 kts | 330° |
| 2026-05-07 07:15 | 13.54385 | 100.81892 | 11904 ft | 340 kts | 348° |
| 2026-05-07 07:15 | 13.56725 | 100.81698 | 11596 ft | 334 kts | 8° |
| 2026-05-07 07:15 | 13.59024 | 100.82085 | 11295 ft | 332 kts | 14° |
| 2026-05-07 07:15 | 13.61266 | 100.82622 | 10985 ft | 329 kts | 15° |
| 2026-05-07 07:16 | 13.63491 | 100.83206 | 10688 ft | 326 kts | 16° |
| 2026-05-07 07:16 | 13.65685 | 100.83800 | 10444 ft | 320 kts | 17° |
| 2026-05-07 07:16 | 13.67808 | 100.84380 | 10217 ft | 313 kts | 17° |
| 2026-05-07 07:16 | 13.69912 | 100.84956 | 9973 ft | 307 kts | 17° |
| 2026-05-07 07:17 | 13.71950 | 100.85514 | 9719 ft | 302 kts | 17° |
| 2026-05-07 07:17 | 13.73984 | 100.86072 | 9416 ft | 297 kts | 17° |
| 2026-05-07 07:17 | 13.75958 | 100.86613 | 9153 ft | 293 kts | 17° |
| 2026-05-07 07:17 | 13.77909 | 100.87148 | 8958 ft | 286 kts | 17° |
| 2026-05-07 07:18 | 13.79838 | 100.87676 | 8794 ft | 279 kts | 17° |
| 2026-05-07 07:18 | 13.81696 | 100.88184 | 8571 ft | 273 kts | 17° |
| 2026-05-07 07:18 | 13.83526 | 100.88687 | 8331 ft | 269 kts | 17° |
| 2026-05-07 07:18 | 13.85343 | 100.89185 | 8084 ft | 268 kts | 17° |
| 2026-05-07 07:19 | 13.87150 | 100.89681 | 7852 ft | 268 kts | 17° |
| 2026-05-07 07:19 | 13.88949 | 100.90173 | 7615 ft | 268 kts | 17° |
| 2026-05-07 07:19 | 13.90755 | 100.90668 | 7376 ft | 267 kts | 17° |
| 2026-05-07 07:19 | 13.92570 | 100.91166 | 7161 ft | 267 kts | 17° |
| 2026-05-07 07:20 | 13.94352 | 100.91655 | 6936 ft | 267 kts | 17° |
| 2026-05-07 07:20 | 13.96170 | 100.92155 | 6721 ft | 267 kts | 17° |
| 2026-05-07 07:20 | 13.97963 | 100.92647 | 6469 ft | 266 kts | 17° |
| 2026-05-07 07:20 | 13.99741 | 100.93135 | 6242 ft | 265 kts | 17° |
| 2026-05-07 07:21 | 14.01544 | 100.93613 | 6064 ft | 260 kts | 16° |
| 2026-05-07 07:21 | 14.03256 | 100.94058 | 6014 ft | 252 kts | 16° |
| 2026-05-07 07:21 | 14.04986 | 100.94504 | 6002 ft | 252 kts | 13° |
| 2026-05-07 07:21 | 14.06768 | 100.94480 | 5970 ft | 267 kts | 345° |
| 2026-05-07 07:22 | 14.08390 | 100.93546 | 5916 ft | 273 kts | 315° |
| 2026-05-07 07:22 | 14.09361 | 100.91878 | 5876 ft | 275 kts | 284° |
| 2026-05-07 07:22 | 14.09384 | 100.89924 | 5845 ft | 277 kts | 253° |
| 2026-05-07 07:22 | 14.08437 | 100.88216 | 5830 ft | 275 kts | 221° |
| 2026-05-07 07:23 | 14.06833 | 100.87146 | 5815 ft | 274 kts | 205° |
| 2026-05-07 07:23 | 14.05124 | 100.86311 | 5800 ft | 273 kts | 203° |
| 2026-05-07 07:23 | 14.03394 | 100.85490 | 5681 ft | 267 kts | 202° |
| 2026-05-07 07:23 | 14.01684 | 100.84861 | 5629 ft | 251 kts | 195° |
| 2026-05-07 07:24 | 14.00037 | 100.84345 | 5428 ft | 245 kts | 195° |
| 2026-05-07 07:24 | 13.98391 | 100.83845 | 5096 ft | 245 kts | 194° |
| 2026-05-07 07:24 | 13.96749 | 100.83368 | 4775 ft | 245 kts | 194° |
| 2026-05-07 07:24 | 13.95097 | 100.82904 | 4432 ft | 245 kts | 193° |
| 2026-05-07 07:25 | 13.91835 | 100.82019 | 3979 ft | 232 kts | 193° |
| 2026-05-07 07:25 | 13.90318 | 100.81615 | 3963 ft | 216 kts | 193° |
| 2026-05-07 07:25 | 13.88856 | 100.81235 | 3750 ft | 215 kts | 193° |
| 2026-05-07 07:26 | 13.87432 | 100.80867 | 3495 ft | 211 kts | 193° |
| 2026-05-07 07:26 | 13.86018 | 100.80502 | 3239 ft | 206 kts | 193° |
| 2026-05-07 07:26 | 13.84642 | 100.80145 | 2987 ft | 201 kts | 193° |
| 2026-05-07 07:26 | 13.83281 | 100.79790 | 2735 ft | 197 kts | 193° |
| 2026-05-07 07:27 | 13.81973 | 100.79448 | 2492 ft | 192 kts | 193° |
| 2026-05-07 07:27 | 13.80693 | 100.79113 | 2250 ft | 182 kts | 193° |
| 2026-05-07 07:27 | 13.79493 | 100.78798 | 2024 ft | 176 kts | 193° |
| 2026-05-07 07:27 | 13.78337 | 100.78496 | 1810 ft | 165 kts | 193° |
| 2026-05-07 07:28 | 13.77238 | 100.78208 | 1615 ft | 161 kts | 193° |
| 2026-05-07 07:28 | 13.76147 | 100.77923 | 1402 ft | 159 kts | 194° |
| 2026-05-07 07:28 | 13.75070 | 100.77640 | 1191 ft | 159 kts | 194° |
| 2026-05-07 07:28 | 13.73986 | 100.77357 | 980 ft | 159 kts | 194° |
| 2026-05-07 07:29 | 13.72912 | 100.77077 | 770 ft | 158 kts | 195° |
| 2026-05-07 07:29 | 13.71844 | 100.76800 | 568 ft | 159 kts | 195° |
| 2026-05-07 07:29 | 13.70765 | 100.76518 | 349 ft | 158 kts | 195° |
| 2026-05-07 07:29 | 13.69694 | 100.76240 | 142 ft | 157 kts | 196° |
| 2026-05-07 07:30 | 13.68643 | 100.75967 | 20 ft | 147 kts | 195° |
| 2026-05-07 07:30 | 13.67764 | 100.75733 | 14 ft | 107 kts | 195° |
| 2026-05-07 07:30 | 13.67233 | 100.75589 | 14 ft | 39 kts | 203° |
| 2026-05-07 07:30 | 13.67129 | 100.75487 | 14 ft | 16 kts | 243° |
| 2026-05-07 07:31 | 13.67144 | 100.75400 | 14 ft | 13 kts | 352° |
| 2026-05-07 07:31 | 13.67232 | 100.75415 | 14 ft | 12 kts | 14° |
| 2026-05-07 07:31 | 13.67309 | 100.75435 | 14 ft | 10 kts | 14° |
| 2026-05-07 07:31 | 13.67385 | 100.75455 | 14 ft | 11 kts | 14° |
| 2026-05-07 07:32 | 13.67472 | 100.75478 | 14 ft | 13 kts | 14° |
| 2026-05-07 07:32 | 13.67569 | 100.75504 | 14 ft | 14 kts | 14° |
| 2026-05-07 07:32 | 13.67677 | 100.75532 | 14 ft | 16 kts | 14° |
| 2026-05-07 07:32 | 13.67796 | 100.75563 | 14 ft | 18 kts | 14° |
| 2026-05-07 07:33 | 13.67926 | 100.75597 | 14 ft | 19 kts | 14° |
| 2026-05-07 07:33 | 13.68063 | 100.75633 | 14 ft | 20 kts | 14° |
| 2026-05-07 07:33 | 13.68207 | 100.75670 | 14 ft | 22 kts | 14° |
| 2026-05-07 07:33 | 13.68344 | 100.75706 | 14 ft | 20 kts | 14° |
| 2026-05-07 07:34 | 13.68444 | 100.75703 | 14 ft | 13 kts | 305° |
| 2026-05-07 07:34 | 13.68475 | 100.75600 | 14 ft | 15 kts | 284° |
| 2026-05-07 07:34 | 13.68502 | 100.75491 | 14 ft | 16 kts | 284° |
| 2026-05-07 07:34 | 13.68532 | 100.75369 | 14 ft | 18 kts | 284° |
| 2026-05-07 07:35 | 13.68563 | 100.75240 | 14 ft | 19 kts | 283° |
| 2026-05-07 07:35 | 13.68597 | 100.75106 | 14 ft | 19 kts | 284° |
| 2026-05-07 07:35 | 13.68632 | 100.74963 | 14 ft | 20 kts | 284° |
| 2026-05-07 07:35 | 13.68669 | 100.74817 | 14 ft | 21 kts | 284° |
| 2026-05-07 07:36 | 13.68706 | 100.74663 | 14 ft | 22 kts | 285° |
| 2026-05-07 07:36 | 13.68745 | 100.74508 | 14 ft | 22 kts | 284° |
| 2026-05-07 07:36 | 13.68784 | 100.74412 | 14 ft | 11 kts | 334° |
| 2026-05-07 07:36 | 13.68855 | 100.74416 | 14 ft | 7 kts | 27° |
| 2026-05-07 07:37 | 13.68867 | 100.74451 | 14 ft | 7 kts | 88° |
| 2026-05-07 07:37 | 13.68865 | 100.74484 | 14 ft | 2 kts | 104° |
| 2026-05-07 07:37 | 13.68861 | 100.74502 | 14 ft | 1 kts | 104° |
| 2026-05-07 07:37 | 13.68860 | 100.74504 | 14 ft | 0 kts | 104° |